sensor_id;sensor_type;location;lat;lon;timestamp;P1;durP1;ratioP1;P2;durP2;ratioP2
58017;SDS011;43810;50.860;19.226;2023-12-20T00:01:35;9.05;;;5.43;;
58017;SDS011;43810;50.860;19.226;2023-12-20T00:04:02;8.57;;;4.90;;
58017;SDS011;43810;50.860;19.226;2023-12-20T00:06:27;11.50;;;5.60;;
58017;SDS011;43810;50.860;19.226;2023-12-20T00:08:53;7.13;;;4.80;;
58017;SDS011;43810;50.860;19.226;2023-12-20T00:11:19;10.90;;;5.43;;
58017;SDS011;43810;50.860;19.226;2023-12-20T00:13:45;7.47;;;4.60;;
58017;SDS011;43810;50.860;19.226;2023-12-20T00:16:11;13.23;;;5.20;;
58017;SDS011;43810;50.860;19.226;2023-12-20T00:18:36;10.48;;;4.20;;
58017;SDS011;43810;50.860;19.226;2023-12-20T00:21:02;6.53;;;4.93;;
58017;SDS011;43810;50.860;19.226;2023-12-20T00:23:28;11.60;;;4.68;;
58017;SDS011;43810;50.860;19.226;2023-12-20T00:25:55;13.27;;;5.40;;
58017;SDS011;43810;50.860;19.226;2023-12-20T00:28:20;8.32;;;4.53;;
58017;SDS011;43810;50.860;19.226;2023-12-20T00:30:46;7.28;;;4.78;;
58017;SDS011;43810;50.860;19.226;2023-12-20T00:33:12;9.32;;;4.95;;
58017;SDS011;43810;50.860;19.226;2023-12-20T00:35:38;12.15;;;5.15;;
58017;SDS011;43810;50.860;19.226;2023-12-20T00:38:04;8.93;;;4.75;;
58017;SDS011;43810;50.860;19.226;2023-12-20T00:40:30;12.35;;;4.82;;
58017;SDS011;43810;50.860;19.226;2023-12-20T00:42:56;7.75;;;4.45;;
58017;SDS011;43810;50.860;19.226;2023-12-20T00:45:22;10.00;;;4.75;;
58017;SDS011;43810;50.860;19.226;2023-12-20T00:47:47;9.18;;;5.28;;
58017;SDS011;43810;50.860;19.226;2023-12-20T00:50:13;10.93;;;5.57;;
58017;SDS011;43810;50.860;19.226;2023-12-20T00:52:39;8.82;;;4.82;;
58017;SDS011;43810;50.860;19.226;2023-12-20T00:55:05;11.43;;;5.18;;
58017;SDS011;43810;50.860;19.226;2023-12-20T00:57:31;10.77;;;5.85;;
58017;SDS011;43810;50.860;19.226;2023-12-20T00:59:57;11.93;;;5.10;;
58017;SDS011;43810;50.860;19.226;2023-12-20T01:02:23;12.95;;;6.22;;
58017;SDS011;43810;50.860;19.226;2023-12-20T01:04:48;9.32;;;4.97;;
58017;SDS011;43810;50.860;19.226;2023-12-20T01:07:14;8.23;;;4.65;;
58017;SDS011;43810;50.860;19.226;2023-12-20T01:09:40;16.50;;;6.43;;
58017;SDS011;43810;50.860;19.226;2023-12-20T01:12:06;7.68;;;4.53;;
58017;SDS011;43810;50.860;19.226;2023-12-20T01:14:31;11.13;;;5.03;;
58017;SDS011;43810;50.860;19.226;2023-12-20T01:16:57;11.73;;;4.72;;
58017;SDS011;43810;50.860;19.226;2023-12-20T01:19:24;13.52;;;4.88;;
58017;SDS011;43810;50.860;19.226;2023-12-20T01:21:50;12.20;;;5.85;;
58017;SDS011;43810;50.860;19.226;2023-12-20T01:24:16;10.38;;;5.68;;
58017;SDS011;43810;50.860;19.226;2023-12-20T01:26:41;8.55;;;4.78;;
58017;SDS011;43810;50.860;19.226;2023-12-20T01:29:07;10.07;;;5.57;;
58017;SDS011;43810;50.860;19.226;2023-12-20T01:31:33;10.00;;;5.80;;
58017;SDS011;43810;50.860;19.226;2023-12-20T01:33:58;11.20;;;5.43;;
58017;SDS011;43810;50.860;19.226;2023-12-20T01:36:24;14.98;;;5.70;;
58017;SDS011;43810;50.860;19.226;2023-12-20T01:38:50;8.32;;;5.00;;
58017;SDS011;43810;50.860;19.226;2023-12-20T01:41:16;13.15;;;6.75;;
58017;SDS011;43810;50.860;19.226;2023-12-20T01:43:41;7.47;;;5.32;;
58017;SDS011;43810;50.860;19.226;2023-12-20T01:46:07;10.18;;;5.30;;
58017;SDS011;43810;50.860;19.226;2023-12-20T01:48:33;7.93;;;4.97;;
58017;SDS011;43810;50.860;19.226;2023-12-20T01:51:02;9.73;;;5.40;;
58017;SDS011;43810;50.860;19.226;2023-12-20T01:53:28;10.68;;;6.15;;
58017;SDS011;43810;50.860;19.226;2023-12-20T01:55:55;13.05;;;5.55;;
58017;SDS011;43810;50.860;19.226;2023-12-20T01:58:23;10.35;;;5.45;;
58017;SDS011;43810;50.860;19.226;2023-12-20T02:00:50;11.75;;;5.57;;
58017;SDS011;43810;50.860;19.226;2023-12-20T02:03:15;10.90;;;5.88;;
58017;SDS011;43810;50.860;19.226;2023-12-20T02:05:42;10.15;;;5.47;;
58017;SDS011;43810;50.860;19.226;2023-12-20T02:08:09;11.68;;;6.38;;
58017;SDS011;43810;50.860;19.226;2023-12-20T02:10:35;13.13;;;6.28;;
58017;SDS011;43810;50.860;19.226;2023-12-20T02:13:01;13.98;;;6.28;;
58017;SDS011;43810;50.860;19.226;2023-12-20T02:15:27;10.90;;;6.20;;
58017;SDS011;43810;50.860;19.226;2023-12-20T02:17:53;15.10;;;6.25;;
58017;SDS011;43810;50.860;19.226;2023-12-20T02:20:19;12.02;;;6.50;;
58017;SDS011;43810;50.860;19.226;2023-12-20T02:22:44;14.30;;;7.47;;
58017;SDS011;43810;50.860;19.226;2023-12-20T02:25:10;14.32;;;7.47;;
58017;SDS011;43810;50.860;19.226;2023-12-20T02:27:36;10.20;;;5.72;;
58017;SDS011;43810;50.860;19.226;2023-12-20T02:30:02;12.18;;;6.30;;
58017;SDS011;43810;50.860;19.226;2023-12-20T02:32:28;16.88;;;7.88;;
58017;SDS011;43810;50.860;19.226;2023-12-20T02:34:54;13.25;;;7.18;;
58017;SDS011;43810;50.860;19.226;2023-12-20T02:37:20;13.25;;;7.35;;
58017;SDS011;43810;50.860;19.226;2023-12-20T02:39:46;14.05;;;7.85;;
58017;SDS011;43810;50.860;19.226;2023-12-20T02:42:12;12.25;;;7.15;;
58017;SDS011;43810;50.860;19.226;2023-12-20T02:44:38;15.80;;;6.97;;
58017;SDS011;43810;50.860;19.226;2023-12-20T02:47:03;15.55;;;7.45;;
58017;SDS011;43810;50.860;19.226;2023-12-20T02:49:29;14.60;;;7.72;;
58017;SDS011;43810;50.860;19.226;2023-12-20T02:51:55;11.98;;;6.47;;
58017;SDS011;43810;50.860;19.226;2023-12-20T02:54:20;11.38;;;6.43;;
58017;SDS011;43810;50.860;19.226;2023-12-20T02:56:46;15.70;;;7.40;;
58017;SDS011;43810;50.860;19.226;2023-12-20T02:59:13;16.67;;;6.95;;
58017;SDS011;43810;50.860;19.226;2023-12-20T03:01:42;13.15;;;6.63;;
58017;SDS011;43810;50.860;19.226;2023-12-20T03:04:09;14.55;;;6.65;;
58017;SDS011;43810;50.860;19.226;2023-12-20T03:06:35;9.95;;;7.18;;
58017;SDS011;43810;50.860;19.226;2023-12-20T03:09:01;16.48;;;8.43;;
58017;SDS011;43810;50.860;19.226;2023-12-20T03:11:27;11.35;;;7.70;;
58017;SDS011;43810;50.860;19.226;2023-12-20T03:13:54;11.52;;;7.28;;
58017;SDS011;43810;50.860;19.226;2023-12-20T03:16:22;13.85;;;7.68;;
58017;SDS011;43810;50.860;19.226;2023-12-20T03:18:48;15.48;;;7.93;;
58017;SDS011;43810;50.860;19.226;2023-12-20T03:21:14;14.70;;;7.82;;
58017;SDS011;43810;50.860;19.226;2023-12-20T03:23:40;10.10;;;6.03;;
58017;SDS011;43810;50.860;19.226;2023-12-20T03:26:09;17.58;;;8.70;;
58017;SDS011;43810;50.860;19.226;2023-12-20T03:28:38;11.27;;;6.72;;
58017;SDS011;43810;50.860;19.226;2023-12-20T03:31:04;15.90;;;8.48;;
58017;SDS011;43810;50.860;19.226;2023-12-20T03:33:30;15.00;;;7.00;;
58017;SDS011;43810;50.860;19.226;2023-12-20T03:35:55;18.73;;;8.77;;
58017;SDS011;43810;50.860;19.226;2023-12-20T03:38:21;15.07;;;7.88;;
58017;SDS011;43810;50.860;19.226;2023-12-20T03:40:49;17.45;;;8.05;;
58017;SDS011;43810;50.860;19.226;2023-12-20T03:43:15;11.25;;;7.07;;
58017;SDS011;43810;50.860;19.226;2023-12-20T03:45:41;15.10;;;7.28;;
58017;SDS011;43810;50.860;19.226;2023-12-20T03:48:08;19.77;;;9.13;;
58017;SDS011;43810;50.860;19.226;2023-12-20T03:50:33;16.67;;;7.35;;
58017;SDS011;43810;50.860;19.226;2023-12-20T03:53:00;15.82;;;8.32;;
58017;SDS011;43810;50.860;19.226;2023-12-20T03:55:26;11.82;;;6.85;;
58017;SDS011;43810;50.860;19.226;2023-12-20T03:57:52;19.08;;;8.13;;
58017;SDS011;43810;50.860;19.226;2023-12-20T04:00:17;18.77;;;9.73;;
58017;SDS011;43810;50.860;19.226;2023-12-20T04:02:43;12.95;;;7.45;;
58017;SDS011;43810;50.860;19.226;2023-12-20T04:05:09;13.32;;;7.32;;
58017;SDS011;43810;50.860;19.226;2023-12-20T04:07:36;16.48;;;9.55;;
58017;SDS011;43810;50.860;19.226;2023-12-20T04:10:02;18.92;;;8.40;;
58017;SDS011;43810;50.860;19.226;2023-12-20T04:12:29;20.45;;;9.43;;
58017;SDS011;43810;50.860;19.226;2023-12-20T04:14:55;22.25;;;9.07;;
58017;SDS011;43810;50.860;19.226;2023-12-20T04:17:21;23.02;;;9.80;;
58017;SDS011;43810;50.860;19.226;2023-12-20T04:19:50;30.42;;;10.25;;
58017;SDS011;43810;50.860;19.226;2023-12-20T04:22:17;38.50;;;12.93;;
58017;SDS011;43810;50.860;19.226;2023-12-20T04:24:44;25.42;;;10.88;;
58017;SDS011;43810;50.860;19.226;2023-12-20T04:27:10;22.45;;;10.73;;
58017;SDS011;43810;50.860;19.226;2023-12-20T04:29:35;15.95;;;8.80;;
58017;SDS011;43810;50.860;19.226;2023-12-20T04:32:01;17.42;;;9.80;;
58017;SDS011;43810;50.860;19.226;2023-12-20T04:34:27;17.30;;;7.85;;
58017;SDS011;43810;50.860;19.226;2023-12-20T04:36:53;16.67;;;9.63;;
58017;SDS011;43810;50.860;19.226;2023-12-20T04:39:19;13.32;;;7.75;;
58017;SDS011;43810;50.860;19.226;2023-12-20T04:41:45;17.02;;;7.57;;
58017;SDS011;43810;50.860;19.226;2023-12-20T04:44:13;14.35;;;8.75;;
58017;SDS011;43810;50.860;19.226;2023-12-20T04:46:38;19.88;;;9.32;;
58017;SDS011;43810;50.860;19.226;2023-12-20T04:49:04;13.57;;;7.70;;
58017;SDS011;43810;50.860;19.226;2023-12-20T04:51:32;13.88;;;7.72;;
58017;SDS011;43810;50.860;19.226;2023-12-20T04:53:59;21.77;;;9.00;;
58017;SDS011;43810;50.860;19.226;2023-12-20T04:56:24;18.08;;;9.15;;
58017;SDS011;43810;50.860;19.226;2023-12-20T04:58:50;17.88;;;10.23;;
58017;SDS011;43810;50.860;19.226;2023-12-20T05:01:16;19.05;;;7.75;;
58017;SDS011;43810;50.860;19.226;2023-12-20T05:03:42;16.65;;;8.88;;
58017;SDS011;43810;50.860;19.226;2023-12-20T05:06:09;17.90;;;9.18;;
58017;SDS011;43810;50.860;19.226;2023-12-20T05:08:35;14.05;;;8.43;;
58017;SDS011;43810;50.860;19.226;2023-12-20T05:11:01;16.48;;;8.68;;
58017;SDS011;43810;50.860;19.226;2023-12-20T05:13:27;17.38;;;7.72;;
58017;SDS011;43810;50.860;19.226;2023-12-20T05:15:53;16.60;;;8.35;;
58017;SDS011;43810;50.860;19.226;2023-12-20T05:18:18;13.55;;;8.10;;
58017;SDS011;43810;50.860;19.226;2023-12-20T05:20:45;13.90;;;8.57;;
58017;SDS011;43810;50.860;19.226;2023-12-20T05:23:11;17.10;;;9.60;;
58017;SDS011;43810;50.860;19.226;2023-12-20T05:25:38;15.65;;;7.47;;
58017;SDS011;43810;50.860;19.226;2023-12-20T05:28:04;16.80;;;8.05;;
58017;SDS011;43810;50.860;19.226;2023-12-20T05:30:30;13.32;;;8.65;;
58017;SDS011;43810;50.860;19.226;2023-12-20T05:32:56;13.98;;;8.35;;
58017;SDS011;43810;50.860;19.226;2023-12-20T05:35:22;11.70;;;6.63;;
58017;SDS011;43810;50.860;19.226;2023-12-20T05:37:49;14.20;;;7.68;;
58017;SDS011;43810;50.860;19.226;2023-12-20T05:40:15;13.38;;;6.28;;
58017;SDS011;43810;50.860;19.226;2023-12-20T05:42:40;15.00;;;6.15;;
58017;SDS011;43810;50.860;19.226;2023-12-20T05:45:06;9.27;;;6.25;;
58017;SDS011;43810;50.860;19.226;2023-12-20T05:47:32;13.98;;;6.97;;
58017;SDS011;43810;50.860;19.226;2023-12-20T05:49:58;9.52;;;6.05;;
58017;SDS011;43810;50.860;19.226;2023-12-20T05:52:24;8.18;;;5.03;;
58017;SDS011;43810;50.860;19.226;2023-12-20T05:54:50;12.60;;;6.22;;
58017;SDS011;43810;50.860;19.226;2023-12-20T05:57:15;13.73;;;6.20;;
58017;SDS011;43810;50.860;19.226;2023-12-20T05:59:41;10.07;;;6.35;;
58017;SDS011;43810;50.860;19.226;2023-12-20T06:02:07;14.38;;;6.30;;
58017;SDS011;43810;50.860;19.226;2023-12-20T06:04:33;14.73;;;7.18;;
58017;SDS011;43810;50.860;19.226;2023-12-20T06:06:59;13.85;;;6.90;;
58017;SDS011;43810;50.860;19.226;2023-12-20T06:09:28;10.25;;;6.50;;
58017;SDS011;43810;50.860;19.226;2023-12-20T06:11:54;15.02;;;6.50;;
58017;SDS011;43810;50.860;19.226;2023-12-20T06:14:20;16.88;;;7.90;;
58017;SDS011;43810;50.860;19.226;2023-12-20T06:16:46;17.33;;;5.95;;
58017;SDS011;43810;50.860;19.226;2023-12-20T06:19:12;14.30;;;6.28;;
58017;SDS011;43810;50.860;19.226;2023-12-20T06:21:38;6.72;;;4.45;;
58017;SDS011;43810;50.860;19.226;2023-12-20T06:24:04;10.65;;;6.40;;
58017;SDS011;43810;50.860;19.226;2023-12-20T06:26:30;15.52;;;5.20;;
58017;SDS011;43810;50.860;19.226;2023-12-20T06:28:56;8.60;;;6.07;;
58017;SDS011;43810;50.860;19.226;2023-12-20T06:31:21;15.80;;;6.20;;
58017;SDS011;43810;50.860;19.226;2023-12-20T06:33:47;10.82;;;5.82;;
58017;SDS011;43810;50.860;19.226;2023-12-20T06:36:15;11.73;;;6.68;;
58017;SDS011;43810;50.860;19.226;2023-12-20T06:38:40;9.85;;;5.30;;
58017;SDS011;43810;50.860;19.226;2023-12-20T06:41:07;8.50;;;5.43;;
58017;SDS011;43810;50.860;19.226;2023-12-20T06:43:33;8.68;;;5.00;;
58017;SDS011;43810;50.860;19.226;2023-12-20T06:46:02;8.20;;;4.07;;
58017;SDS011;43810;50.860;19.226;2023-12-20T06:48:28;11.73;;;4.25;;
58017;SDS011;43810;50.860;19.226;2023-12-20T06:50:53;9.75;;;5.05;;
58017;SDS011;43810;50.860;19.226;2023-12-20T06:53:19;10.88;;;5.60;;
58017;SDS011;43810;50.860;19.226;2023-12-20T06:55:45;9.45;;;5.70;;
58017;SDS011;43810;50.860;19.226;2023-12-20T06:58:10;9.77;;;6.40;;
58017;SDS011;43810;50.860;19.226;2023-12-20T07:00:36;10.13;;;5.95;;
58017;SDS011;43810;50.860;19.226;2023-12-20T07:03:02;10.77;;;5.32;;
58017;SDS011;43810;50.860;19.226;2023-12-20T07:05:29;10.25;;;5.28;;
58017;SDS011;43810;50.860;19.226;2023-12-20T07:07:54;9.07;;;6.10;;
58017;SDS011;43810;50.860;19.226;2023-12-20T07:10:20;9.50;;;4.82;;
58017;SDS011;43810;50.860;19.226;2023-12-20T07:12:46;13.38;;;5.32;;
58017;SDS011;43810;50.860;19.226;2023-12-20T07:15:13;7.53;;;5.55;;
58017;SDS011;43810;50.860;19.226;2023-12-20T07:17:39;12.55;;;7.78;;
58017;SDS011;43810;50.860;19.226;2023-12-20T07:20:05;13.15;;;7.80;;
58017;SDS011;43810;50.860;19.226;2023-12-20T07:22:35;10.48;;;6.03;;
58017;SDS011;43810;50.860;19.226;2023-12-20T07:25:01;13.45;;;7.35;;
58017;SDS011;43810;50.860;19.226;2023-12-20T07:27:27;13.00;;;7.85;;
58017;SDS011;43810;50.860;19.226;2023-12-20T07:29:52;10.43;;;5.45;;
58017;SDS011;43810;50.860;19.226;2023-12-20T07:32:18;11.15;;;5.28;;
58017;SDS011;43810;50.860;19.226;2023-12-20T07:34:44;13.15;;;6.20;;
58017;SDS011;43810;50.860;19.226;2023-12-20T07:37:10;12.60;;;6.50;;
58017;SDS011;43810;50.860;19.226;2023-12-20T07:39:40;11.15;;;5.72;;
58017;SDS011;43810;50.860;19.226;2023-12-20T07:42:09;11.70;;;5.85;;
58017;SDS011;43810;50.860;19.226;2023-12-20T07:44:35;14.52;;;5.63;;
58017;SDS011;43810;50.860;19.226;2023-12-20T07:47:04;8.20;;;3.72;;
58017;SDS011;43810;50.860;19.226;2023-12-20T07:49:30;10.30;;;3.50;;
58017;SDS011;43810;50.860;19.226;2023-12-20T07:51:57;7.90;;;4.82;;
58017;SDS011;43810;50.860;19.226;2023-12-20T07:54:22;7.07;;;4.03;;
58017;SDS011;43810;50.860;19.226;2023-12-20T07:56:48;10.93;;;4.70;;
58017;SDS011;43810;50.860;19.226;2023-12-20T07:59:14;12.48;;;5.22;;
58017;SDS011;43810;50.860;19.226;2023-12-20T08:01:40;6.82;;;3.47;;
58017;SDS011;43810;50.860;19.226;2023-12-20T08:04:06;7.47;;;3.90;;
58017;SDS011;43810;50.860;19.226;2023-12-20T08:06:31;5.47;;;3.60;;
58017;SDS011;43810;50.860;19.226;2023-12-20T08:08:57;5.78;;;3.80;;
58017;SDS011;43810;50.860;19.226;2023-12-20T08:11:23;5.78;;;2.90;;
58017;SDS011;43810;50.860;19.226;2023-12-20T08:13:48;7.10;;;4.05;;
58017;SDS011;43810;50.860;19.226;2023-12-20T08:16:14;4.88;;;2.53;;
58017;SDS011;43810;50.860;19.226;2023-12-20T08:18:42;5.72;;;3.20;;
58017;SDS011;43810;50.860;19.226;2023-12-20T08:21:09;9.57;;;3.28;;
58017;SDS011;43810;50.860;19.226;2023-12-20T08:23:35;6.35;;;3.75;;
58017;SDS011;43810;50.860;19.226;2023-12-20T08:26:07;4.13;;;2.17;;
58017;SDS011;43810;50.860;19.226;2023-12-20T08:28:33;6.57;;;3.50;;
58017;SDS011;43810;50.860;19.226;2023-12-20T08:31:00;7.00;;;3.45;;
58017;SDS011;43810;50.860;19.226;2023-12-20T08:33:25;3.08;;;2.40;;
58017;SDS011;43810;50.860;19.226;2023-12-20T08:35:51;8.23;;;3.45;;
58017;SDS011;43810;50.860;19.226;2023-12-20T08:38:17;7.45;;;3.72;;
58017;SDS011;43810;50.860;19.226;2023-12-20T08:40:43;5.57;;;3.60;;
58017;SDS011;43810;50.860;19.226;2023-12-20T08:43:10;6.53;;;4.53;;
58017;SDS011;43810;50.860;19.226;2023-12-20T08:45:36;13.15;;;3.80;;
58017;SDS011;43810;50.860;19.226;2023-12-20T08:48:02;5.00;;;3.33;;
58017;SDS011;43810;50.860;19.226;2023-12-20T08:50:29;5.47;;;3.15;;
58017;SDS011;43810;50.860;19.226;2023-12-20T08:52:54;4.63;;;2.83;;
58017;SDS011;43810;50.860;19.226;2023-12-20T08:55:20;4.82;;;3.22;;
58017;SDS011;43810;50.860;19.226;2023-12-20T08:57:46;5.45;;;3.08;;
58017;SDS011;43810;50.860;19.226;2023-12-20T09:00:12;5.50;;;3.75;;
58017;SDS011;43810;50.860;19.226;2023-12-20T09:02:38;7.50;;;3.95;;
58017;SDS011;43810;50.860;19.226;2023-12-20T09:05:04;7.00;;;3.92;;
58017;SDS011;43810;50.860;19.226;2023-12-20T09:07:30;5.90;;;3.50;;
58017;SDS011;43810;50.860;19.226;2023-12-20T09:09:57;4.53;;;3.80;;
58017;SDS011;43810;50.860;19.226;2023-12-20T09:12:24;6.00;;;4.03;;
58017;SDS011;43810;50.860;19.226;2023-12-20T09:14:50;11.30;;;5.57;;
58017;SDS011;43810;50.860;19.226;2023-12-20T09:17:16;6.50;;;4.32;;
58017;SDS011;43810;50.860;19.226;2023-12-20T09:19:43;6.25;;;4.10;;
58017;SDS011;43810;50.860;19.226;2023-12-20T09:22:09;4.72;;;3.67;;
58017;SDS011;43810;50.860;19.226;2023-12-20T09:24:35;6.95;;;3.67;;
58017;SDS011;43810;50.860;19.226;2023-12-20T09:27:01;10.57;;;4.65;;
58017;SDS011;43810;50.860;19.226;2023-12-20T09:29:28;6.85;;;4.70;;
58017;SDS011;43810;50.860;19.226;2023-12-20T09:31:54;9.25;;;4.80;;
58017;SDS011;43810;50.860;19.226;2023-12-20T09:34:20;6.57;;;3.80;;
58017;SDS011;43810;50.860;19.226;2023-12-20T09:36:46;7.85;;;4.72;;
58017;SDS011;43810;50.860;19.226;2023-12-20T09:39:13;4.57;;;3.35;;
58017;SDS011;43810;50.860;19.226;2023-12-20T09:41:42;5.10;;;3.58;;
58017;SDS011;43810;50.860;19.226;2023-12-20T09:44:14;8.25;;;3.35;;
58017;SDS011;43810;50.860;19.226;2023-12-20T09:46:44;7.35;;;3.47;;
58017;SDS011;43810;50.860;19.226;2023-12-20T09:49:12;4.30;;;3.05;;
58017;SDS011;43810;50.860;19.226;2023-12-20T09:51:38;3.35;;;2.58;;
58017;SDS011;43810;50.860;19.226;2023-12-20T09:54:06;3.92;;;3.38;;
58017;SDS011;43810;50.860;19.226;2023-12-20T09:56:31;5.88;;;3.22;;
58017;SDS011;43810;50.860;19.226;2023-12-20T09:58:59;5.30;;;3.58;;
58017;SDS011;43810;50.860;19.226;2023-12-20T10:01:25;4.30;;;3.58;;
58017;SDS011;43810;50.860;19.226;2023-12-20T10:03:52;9.00;;;4.05;;
58017;SDS011;43810;50.860;19.226;2023-12-20T10:06:20;9.02;;;3.65;;
58017;SDS011;43810;50.860;19.226;2023-12-20T10:08:46;5.60;;;2.75;;
58017;SDS011;43810;50.860;19.226;2023-12-20T10:11:12;11.35;;;4.30;;
58017;SDS011;43810;50.860;19.226;2023-12-20T10:13:39;4.80;;;3.60;;
58017;SDS011;43810;50.860;19.226;2023-12-20T10:16:06;12.68;;;6.00;;
58017;SDS011;43810;50.860;19.226;2023-12-20T10:18:35;7.13;;;4.13;;
58017;SDS011;43810;50.860;19.226;2023-12-20T10:21:01;6.72;;;4.13;;
58017;SDS011;43810;50.860;19.226;2023-12-20T10:23:28;8.02;;;4.63;;
58017;SDS011;43810;50.860;19.226;2023-12-20T10:25:58;5.18;;;3.33;;
58017;SDS011;43810;50.860;19.226;2023-12-20T10:28:25;5.20;;;3.75;;
58017;SDS011;43810;50.860;19.226;2023-12-20T10:30:53;13.65;;;4.80;;
58017;SDS011;43810;50.860;19.226;2023-12-20T10:33:24;6.88;;;3.70;;
58017;SDS011;43810;50.860;19.226;2023-12-20T10:35:51;7.45;;;5.30;;
58017;SDS011;43810;50.860;19.226;2023-12-20T10:38:18;5.95;;;3.58;;
58017;SDS011;43810;50.860;19.226;2023-12-20T10:40:47;5.32;;;3.65;;
58017;SDS011;43810;50.860;19.226;2023-12-20T10:43:14;7.82;;;3.70;;
58017;SDS011;43810;50.860;19.226;2023-12-20T10:45:41;7.15;;;4.70;;
58017;SDS011;43810;50.860;19.226;2023-12-20T10:48:11;5.13;;;3.63;;
58017;SDS011;43810;50.860;19.226;2023-12-20T10:50:37;6.53;;;3.40;;
58017;SDS011;43810;50.860;19.226;2023-12-20T10:53:03;9.20;;;4.22;;
58017;SDS011;43810;50.860;19.226;2023-12-20T10:55:29;6.00;;;4.57;;
58017;SDS011;43810;50.860;19.226;2023-12-20T10:58:01;8.20;;;4.50;;
58017;SDS011;43810;50.860;19.226;2023-12-20T11:00:32;11.40;;;7.30;;
58017;SDS011;43810;50.860;19.226;2023-12-20T11:03:00;8.57;;;4.35;;
58017;SDS011;43810;50.860;19.226;2023-12-20T11:08:20;5.63;;;2.53;;
58017;SDS011;43810;50.860;19.226;2023-12-20T11:11:11;3.03;;;2.72;;
58017;SDS011;43810;50.860;19.226;2023-12-20T11:13:48;7.25;;;3.78;;
58017;SDS011;43810;50.860;19.226;2023-12-20T11:16:21;6.85;;;4.00;;
58017;SDS011;43810;50.860;19.226;2023-12-20T11:18:46;8.45;;;4.55;;
58017;SDS011;43810;50.860;19.226;2023-12-20T11:21:12;5.43;;;2.97;;
58017;SDS011;43810;50.860;19.226;2023-12-20T11:23:39;4.82;;;3.42;;
58017;SDS011;43810;50.860;19.226;2023-12-20T11:26:08;6.00;;;4.38;;
58017;SDS011;43810;50.860;19.226;2023-12-20T11:28:33;8.95;;;4.50;;
58017;SDS011;43810;50.860;19.226;2023-12-20T11:31:00;7.68;;;4.20;;
58017;SDS011;43810;50.860;19.226;2023-12-20T11:33:31;5.85;;;3.30;;
58017;SDS011;43810;50.860;19.226;2023-12-20T11:36:01;6.07;;;2.95;;
58017;SDS011;43810;50.860;19.226;2023-12-20T11:38:38;5.25;;;2.95;;
58017;SDS011;43810;50.860;19.226;2023-12-20T11:41:07;5.30;;;3.03;;
58017;SDS011;43810;50.860;19.226;2023-12-20T11:43:36;2.70;;;2.30;;
58017;SDS011;43810;50.860;19.226;2023-12-20T11:46:05;10.57;;;2.90;;
58017;SDS011;43810;50.860;19.226;2023-12-20T11:48:33;4.93;;;2.85;;
58017;SDS011;43810;50.860;19.226;2023-12-20T11:51:00;3.80;;;2.65;;
58017;SDS011;43810;50.860;19.226;2023-12-20T11:53:26;4.65;;;2.28;;
58017;SDS011;43810;50.860;19.226;2023-12-20T11:55:53;3.67;;;2.50;;
58017;SDS011;43810;50.860;19.226;2023-12-20T11:58:19;2.65;;;1.90;;
58017;SDS011;43810;50.860;19.226;2023-12-20T12:00:45;6.38;;;2.72;;
58017;SDS011;43810;50.860;19.226;2023-12-20T12:03:14;4.47;;;2.53;;
58017;SDS011;43810;50.860;19.226;2023-12-20T12:05:41;6.25;;;2.90;;
58017;SDS011;43810;50.860;19.226;2023-12-20T12:08:06;3.53;;;2.60;;
58017;SDS011;43810;50.860;19.226;2023-12-20T12:10:33;2.22;;;1.90;;
58017;SDS011;43810;50.860;19.226;2023-12-20T12:12:59;4.75;;;2.88;;
58017;SDS011;43810;50.860;19.226;2023-12-20T12:15:26;6.55;;;2.90;;
58017;SDS011;43810;50.860;19.226;2023-12-20T12:17:55;7.07;;;3.30;;
58017;SDS011;43810;50.860;19.226;2023-12-20T12:20:22;7.07;;;3.20;;
58017;SDS011;43810;50.860;19.226;2023-12-20T12:22:58;4.57;;;3.13;;
58017;SDS011;43810;50.860;19.226;2023-12-20T12:25:25;4.63;;;2.88;;
58017;SDS011;43810;50.860;19.226;2023-12-20T12:27:51;7.03;;;3.88;;
58017;SDS011;43810;50.860;19.226;2023-12-20T12:30:17;6.13;;;3.72;;
58017;SDS011;43810;50.860;19.226;2023-12-20T12:32:44;9.88;;;4.15;;
58017;SDS011;43810;50.860;19.226;2023-12-20T12:35:10;3.42;;;3.05;;
58017;SDS011;43810;50.860;19.226;2023-12-20T12:37:39;5.68;;;4.90;;
58017;SDS011;43810;50.860;19.226;2023-12-20T12:40:06;6.82;;;4.20;;
58017;SDS011;43810;50.860;19.226;2023-12-20T12:42:35;8.20;;;3.60;;
58017;SDS011;43810;50.860;19.226;2023-12-20T12:45:02;7.18;;;4.53;;
58017;SDS011;43810;50.860;19.226;2023-12-20T12:47:27;11.90;;;4.75;;
58017;SDS011;43810;50.860;19.226;2023-12-20T12:49:54;7.03;;;5.07;;
58017;SDS011;43810;50.860;19.226;2023-12-20T12:52:19;6.65;;;3.55;;
58017;SDS011;43810;50.860;19.226;2023-12-20T12:54:45;13.32;;;5.25;;
58017;SDS011;43810;50.860;19.226;2023-12-20T12:57:13;11.02;;;4.15;;
58017;SDS011;43810;50.860;19.226;2023-12-20T12:59:39;7.70;;;4.38;;
58017;SDS011;43810;50.860;19.226;2023-12-20T13:02:05;10.98;;;5.80;;
58017;SDS011;43810;50.860;19.226;2023-12-20T13:04:31;4.22;;;3.30;;
58017;SDS011;43810;50.860;19.226;2023-12-20T13:06:56;7.80;;;3.72;;
58017;SDS011;43810;50.860;19.226;2023-12-20T13:09:23;5.97;;;3.30;;
58017;SDS011;43810;50.860;19.226;2023-12-20T13:11:48;9.65;;;4.07;;
58017;SDS011;43810;50.860;19.226;2023-12-20T13:14:15;8.88;;;3.53;;
58017;SDS011;43810;50.860;19.226;2023-12-20T13:16:41;9.25;;;3.00;;
58017;SDS011;43810;50.860;19.226;2023-12-20T13:19:08;3.60;;;2.40;;
58017;SDS011;43810;50.860;19.226;2023-12-20T13:21:35;8.50;;;2.80;;
58017;SDS011;43810;50.860;19.226;2023-12-20T13:24:01;13.23;;;4.13;;
58017;SDS011;43810;50.860;19.226;2023-12-20T13:26:27;11.38;;;4.32;;
58017;SDS011;43810;50.860;19.226;2023-12-20T13:28:53;7.38;;;3.75;;
58017;SDS011;43810;50.860;19.226;2023-12-20T13:31:19;7.72;;;4.47;;
58017;SDS011;43810;50.860;19.226;2023-12-20T13:33:45;3.20;;;1.88;;
58017;SDS011;43810;50.860;19.226;2023-12-20T13:36:11;5.20;;;2.92;;
58017;SDS011;43810;50.860;19.226;2023-12-20T13:38:38;10.20;;;3.17;;
58017;SDS011;43810;50.860;19.226;2023-12-20T13:41:04;10.73;;;3.85;;
58017;SDS011;43810;50.860;19.226;2023-12-20T13:43:30;6.72;;;3.38;;
58017;SDS011;43810;50.860;19.226;2023-12-20T13:45:58;4.22;;;2.60;;
58017;SDS011;43810;50.860;19.226;2023-12-20T13:48:24;7.53;;;3.90;;
58017;SDS011;43810;50.860;19.226;2023-12-20T13:50:50;3.20;;;2.88;;
58017;SDS011;43810;50.860;19.226;2023-12-20T13:53:16;6.30;;;3.13;;
58017;SDS011;43810;50.860;19.226;2023-12-20T13:55:41;6.50;;;3.17;;
58017;SDS011;43810;50.860;19.226;2023-12-20T13:58:07;15.70;;;4.53;;
58017;SDS011;43810;50.860;19.226;2023-12-20T14:00:35;5.63;;;3.30;;
58017;SDS011;43810;50.860;19.226;2023-12-20T14:03:03;6.07;;;2.47;;
58017;SDS011;43810;50.860;19.226;2023-12-20T14:05:29;7.55;;;3.83;;
58017;SDS011;43810;50.860;19.226;2023-12-20T14:07:55;11.45;;;3.88;;
58017;SDS011;43810;50.860;19.226;2023-12-20T14:10:23;7.90;;;3.17;;
58017;SDS011;43810;50.860;19.226;2023-12-20T14:12:53;7.40;;;4.13;;
58017;SDS011;43810;50.860;19.226;2023-12-20T14:15:19;6.90;;;4.15;;
58017;SDS011;43810;50.860;19.226;2023-12-20T14:17:45;10.88;;;4.10;;
58017;SDS011;43810;50.860;19.226;2023-12-20T14:20:11;7.18;;;3.67;;
58017;SDS011;43810;50.860;19.226;2023-12-20T14:22:38;18.02;;;4.22;;
58017;SDS011;43810;50.860;19.226;2023-12-20T14:25:04;6.32;;;3.92;;
58017;SDS011;43810;50.860;19.226;2023-12-20T14:27:34;7.05;;;3.55;;